Gallipolis Ferry, West Virginia
Current Conditions -  °F | °C
As of 7:35 PM on Wednesday 22 Oct 2014 (Local Time) from K3I2 Reporting Station
Overcast Overcast  
Wind Chill: 52°   Ceiling: 2600
Heat Index: 52°   Visibility: 10mi
Dew Point: 45°   Wind: 5mph
Humidity: 76%   Direction: 330°NNW
Pressure: 30.25"   Gusts: NA
Location:  38.77°N, 82.2°W
Report Text: K3I2 222335Z AUTO 33004KT 10SM OVC026 11/07 A3025 RMK AO2
Loading
Personal Weather Stations






























Interactive Weather Map
Tropical Storm Tracking
New forecast layout! Learn more

10-Day Weather Forecast

Advertisements
Track Severe Weather on mobile